createdAt,value
2023-08-14T00:01:30.973Z,101666.13
2023-08-14T00:03:58.328Z,101655.66
2023-08-14T00:06:25.658Z,101672.78
2023-08-14T00:08:53.267Z,101669.38
2023-08-14T00:11:20.626Z,101673.53
2023-08-14T00:13:57.260Z,101670.69
2023-08-14T00:16:25.891Z,101669.31
2023-08-14T00:18:54.530Z,101668.59
2023-08-14T00:21:23.654Z,101661.81
2023-08-14T00:23:51.308Z,101666.69
2023-08-14T00:26:18.831Z,101669.16
2023-08-14T00:28:46.107Z,101670.75
2023-08-14T00:31:13.551Z,101664.19
2023-08-14T00:33:40.934Z,101657.97
2023-08-14T00:36:08.245Z,101662.50
2023-08-14T00:38:35.750Z,101668.16
2023-08-14T00:41:03.135Z,101667.94
2023-08-14T00:43:31.004Z,101669.00
2023-08-14T00:45:59.129Z,101663.41
2023-08-14T00:48:27.025Z,101668.03
2023-08-14T00:50:55.348Z,101670.13
2023-08-14T00:53:26.225Z,101670.16
2023-08-14T00:55:54.537Z,101665.53
2023-08-14T00:58:23.955Z,101665.53
2023-08-14T01:00:51.847Z,101667.78
2023-08-14T01:03:21.441Z,101668.38
2023-08-14T01:05:48.905Z,101665.41
2023-08-14T01:08:16.328Z,101667.53
2023-08-14T01:10:51.208Z,101673.06
2023-08-14T01:13:32.224Z,101666.53
2023-08-14T01:16:04.506Z,101671.19
2023-08-14T01:18:34.784Z,101670.78
2023-08-14T01:21:10.168Z,101675.03
2023-08-14T01:24:02.264Z,101664.00
2023-08-14T01:26:30.350Z,101668.25
2023-08-14T01:28:58.213Z,101675.75
2023-08-14T01:31:25.828Z,101667.94
2023-08-14T01:33:53.181Z,101666.41
2023-08-14T01:36:41.764Z,101672.19
2023-08-14T01:39:10.938Z,101669.50
2023-08-14T01:41:43.819Z,101679.38
2023-08-14T01:44:15.429Z,101675.31
2023-08-14T01:46:44.541Z,101677.56
2023-08-14T01:49:15.505Z,101670.47
2023-08-14T01:51:44.228Z,101669.50
2023-08-14T01:54:11.588Z,101661.16
2023-08-14T01:56:38.972Z,101663.84
2023-08-14T01:59:06.327Z,101664.84
2023-08-14T02:01:33.674Z,101665.25
2023-08-14T02:04:01.033Z,101666.00
2023-08-14T02:06:29.224Z,101664.00
2023-08-14T02:08:56.494Z,101654.41
2023-08-14T02:11:23.850Z,101656.09
2023-08-14T02:13:51.218Z,101653.41
2023-08-14T02:16:18.677Z,101648.34
2023-08-14T02:18:46.118Z,101655.81
2023-08-14T02:21:13.431Z,101652.59
2023-08-14T02:23:40.791Z,101650.28
2023-08-14T02:26:09.437Z,101648.19
2023-08-14T02:28:36.783Z,101648.88
2023-08-14T02:31:05.694Z,101641.59
2023-08-14T02:33:33.136Z,101652.72
2023-08-14T02:36:00.544Z,101654.69
2023-08-14T02:38:27.998Z,101651.88
2023-08-14T02:40:55.277Z,101637.34
2023-08-14T02:43:22.643Z,101640.72
2023-08-14T02:45:50.017Z,101641.44
2023-08-14T02:48:17.372Z,101625.75
2023-08-14T02:50:44.708Z,101633.56
2023-08-14T02:53:12.017Z,101632.53
2023-08-14T02:55:39.428Z,101631.69
2023-08-14T02:58:06.756Z,101630.44
2023-08-14T03:00:34.132Z,101627.31
2023-08-14T03:03:01.547Z,101638.59
2023-08-14T03:05:29.236Z,101634.25
2023-08-14T03:07:56.509Z,101637.84
2023-08-14T03:10:24.151Z,101636.34
2023-08-14T03:12:51.450Z,101641.84
2023-08-14T03:15:18.896Z,101637.34
2023-08-14T03:17:47.053Z,101630.69
2023-08-14T03:20:14.752Z,101630.13
2023-08-14T03:22:42.464Z,101628.44
2023-08-14T03:25:10.091Z,101635.63
2023-08-14T03:27:38.196Z,101626.59
2023-08-14T03:30:05.997Z,101628.44
2023-08-14T03:32:34.611Z,101625.91
2023-08-14T03:35:02.024Z,101638.31
2023-08-14T03:37:30.083Z,101639.09
2023-08-14T03:39:57.383Z,101641.00
2023-08-14T03:42:24.668Z,101635.03
2023-08-14T03:44:52.034Z,101637.50
2023-08-14T03:47:19.441Z,101632.72
2023-08-14T03:49:46.795Z,101645.19
2023-08-14T03:52:14.328Z,101638.31
2023-08-14T03:54:41.706Z,101638.44
2023-08-14T03:57:09.630Z,101635.31
2023-08-14T03:59:36.964Z,101643.38
2023-08-14T04:02:04.367Z,101628.53
2023-08-14T04:04:31.689Z,101629.97
2023-08-14T04:06:59.655Z,101625.53
2023-08-14T04:09:28.453Z,101624.84
2023-08-14T04:11:55.755Z,101627.13
2023-08-14T04:14:24.547Z,101626.91
2023-08-14T04:16:51.920Z,101623.28
2023-08-14T04:19:20.408Z,101630.31
2023-08-14T04:21:47.874Z,101635.41
2023-08-14T04:24:15.169Z,101630.06
2023-08-14T04:26:42.554Z,101631.78
2023-08-14T04:29:11.091Z,101626.72
2023-08-14T04:31:39.839Z,101628.44
2023-08-14T04:34:08.125Z,101623.19
2023-08-14T04:36:36.934Z,101628.84
2023-08-14T04:39:05.511Z,101622.75
2023-08-14T04:41:32.834Z,101632.22
2023-08-14T04:44:00.181Z,101622.38
2023-08-14T04:46:38.248Z,101621.81
2023-08-14T04:49:09.153Z,101631.44
2023-08-14T04:51:36.543Z,101617.97
2023-08-14T04:54:04.092Z,101618.69
2023-08-14T04:56:32.420Z,101621.09
2023-08-14T04:58:59.777Z,101620.81
2023-08-14T05:01:27.113Z,101618.28
2023-08-14T05:03:54.390Z,101632.66
2023-08-14T05:06:21.697Z,101620.09
2023-08-14T05:08:49.035Z,101620.97
2023-08-14T05:11:16.368Z,101614.31
2023-08-14T05:13:45.754Z,101613.28
2023-08-14T05:16:13.427Z,101625.13
2023-08-14T05:18:40.781Z,101625.66
2023-08-14T05:21:08.288Z,101617.50
2023-08-14T05:23:35.649Z,101618.25
2023-08-14T05:26:02.983Z,101621.16
2023-08-14T05:28:30.414Z,101628.50
2023-08-14T05:30:57.733Z,101636.16
2023-08-14T05:33:25.030Z,101632.91
2023-08-14T05:35:52.438Z,101629.53
2023-08-14T05:38:19.788Z,101633.78
2023-08-14T05:40:47.087Z,101637.19
2023-08-14T05:43:14.406Z,101651.16
2023-08-14T05:45:46.803Z,101645.09
2023-08-14T05:48:15.404Z,101643.38
2023-08-14T05:50:43.190Z,101649.34
2023-08-14T05:53:10.521Z,101643.25
2023-08-14T05:55:42.749Z,101651.72
2023-08-14T05:58:10.156Z,101643.94
2023-08-14T06:00:40.000Z,101649.16
2023-08-14T06:03:10.047Z,101646.06
2023-08-14T06:05:37.549Z,101644.38
2023-08-14T06:08:06.208Z,101642.38
2023-08-14T06:10:33.680Z,101639.56
2023-08-14T06:13:01.097Z,101639.28
2023-08-14T06:15:28.978Z,101640.09
2023-08-14T06:17:56.391Z,101645.63
2023-08-14T06:20:23.807Z,101641.66
2023-08-14T06:22:51.147Z,101644.59
2023-08-14T06:25:19.522Z,101648.94
2023-08-14T06:27:46.897Z,101651.19
2023-08-14T06:30:16.086Z,101644.47
2023-08-14T06:32:43.469Z,101649.56
2023-08-14T06:35:10.914Z,101646.44
2023-08-14T06:37:38.248Z,101648.66
2023-08-14T06:40:06.222Z,101647.41
2023-08-14T06:42:33.601Z,101643.97
2023-08-14T06:45:00.941Z,101652.25
2023-08-14T06:47:28.360Z,101644.19
2023-08-14T06:49:55.662Z,101645.81
2023-08-14T06:52:23.002Z,101643.59
2023-08-14T06:54:50.356Z,101637.63
2023-08-14T06:57:17.631Z,101641.16
2023-08-14T06:59:46.718Z,101635.47
2023-08-14T07:02:14.261Z,101631.00
2023-08-14T07:04:41.761Z,101631.09
2023-08-14T07:07:09.077Z,101634.53
2023-08-14T07:09:36.459Z,101622.84
2023-08-14T07:12:04.072Z,101602.84
2023-08-14T07:14:32.677Z,101626.22
2023-08-14T07:17:00.022Z,101625.78
2023-08-14T07:19:27.351Z,101621.91
2023-08-14T07:21:54.669Z,101613.81
2023-08-14T07:24:22.062Z,101600.66
2023-08-14T07:26:49.341Z,101601.06
2023-08-14T07:29:19.802Z,101607.97
2023-08-14T07:31:47.361Z,101609.28
2023-08-14T07:34:14.780Z,101620.22
2023-08-14T07:36:42.230Z,101630.69
2023-08-14T07:39:09.677Z,101633.72
2023-08-14T07:41:36.992Z,101639.47
2023-08-14T07:44:04.591Z,101635.09
2023-08-14T07:46:31.923Z,101653.81
2023-08-14T07:48:59.310Z,101651.94
2023-08-14T07:51:26.951Z,101653.81
2023-08-14T07:53:54.507Z,101656.03
2023-08-14T07:56:22.029Z,101655.72
2023-08-14T07:58:49.456Z,101658.94
2023-08-14T08:01:17.403Z,101645.66
2023-08-14T08:03:45.192Z,101651.44
2023-08-14T08:06:12.659Z,101653.31
2023-08-14T08:08:40.965Z,101662.28
2023-08-14T08:11:10.017Z,101657.78
2023-08-14T08:13:37.365Z,101660.16
2023-08-14T08:16:04.767Z,101648.06
2023-08-14T08:18:32.085Z,101646.75
2023-08-14T08:20:59.432Z,101646.78
2023-08-14T08:23:26.735Z,101645.13
2023-08-14T08:25:54.212Z,101649.03
2023-08-14T08:28:21.491Z,101652.91
2023-08-14T08:30:48.850Z,101651.91
2023-08-14T08:33:16.156Z,101655.97
2023-08-14T08:35:43.671Z,101660.38
2023-08-14T08:38:10.927Z,101656.84
2023-08-14T08:40:42.465Z,101655.81
2023-08-14T08:43:11.123Z,101656.13
2023-08-14T08:45:42.407Z,101657.81
2023-08-14T08:48:09.887Z,101658.31
2023-08-14T08:50:38.235Z,101663.03
2023-08-14T08:53:06.215Z,101656.94
2023-08-14T08:55:33.780Z,101662.53
2023-08-14T08:58:02.783Z,101661.19
2023-08-14T09:00:30.328Z,101653.75
2023-08-14T09:02:57.769Z,101649.38
2023-08-14T09:05:25.591Z,101647.34
2023-08-14T09:07:53.128Z,101640.31
2023-08-14T09:10:20.475Z,101633.94
2023-08-14T09:12:47.792Z,101633.44
2023-08-14T09:15:16.320Z,101633.94
2023-08-14T09:17:43.788Z,101630.22
2023-08-14T09:20:24.335Z,101622.31
2023-08-14T09:22:59.206Z,101625.53
2023-08-14T09:25:27.438Z,101616.75
2023-08-14T09:27:56.743Z,101615.28
2023-08-14T09:30:27.752Z,101612.28
2023-08-14T09:32:56.895Z,101598.28
2023-08-14T09:35:24.449Z,101583.75
2023-08-14T09:37:51.937Z,101582.06
2023-08-14T09:40:19.292Z,101587.09
2023-08-14T09:42:49.833Z,101590.81
2023-08-14T09:45:18.840Z,101590.50
2023-08-14T09:47:51.143Z,101582.41
2023-08-14T09:50:21.365Z,101586.13
2023-08-14T09:52:50.133Z,101588.28
2023-08-14T09:55:18.312Z,101585.06
2023-08-14T09:57:46.910Z,101577.50
2023-08-14T10:00:14.818Z,101593.03
2023-08-14T10:02:43.828Z,101585.97
2023-08-14T10:05:11.795Z,101586.31
2023-08-14T10:07:40.988Z,101593.22
2023-08-14T10:10:09.672Z,101589.34
2023-08-14T10:12:57.378Z,101591.84
2023-08-14T10:15:33.509Z,101588.16
2023-08-14T10:18:11.053Z,101593.69
2023-08-14T10:20:40.567Z,101592.88
2023-08-14T10:23:12.057Z,101599.09
2023-08-14T10:25:40.252Z,101598.94
2023-08-14T10:28:10.736Z,101601.31
2023-08-14T10:30:39.669Z,101589.81
2023-08-14T10:33:07.878Z,101598.28
2023-08-14T10:35:52.586Z,101602.28
2023-08-14T10:38:25.313Z,101605.31
2023-08-14T10:41:05.311Z,101603.28
2023-08-14T10:43:32.713Z,101604.28
2023-08-14T10:46:00.064Z,101602.28
2023-08-14T10:48:27.387Z,101592.47
2023-08-14T10:51:01.064Z,101591.09
2023-08-14T10:53:31.096Z,101598.03
2023-08-14T10:55:59.780Z,101594.13
2023-08-14T10:58:32.954Z,101595.34
2023-08-14T11:01:10.290Z,101595.50
2023-08-14T11:03:56.388Z,101580.97
2023-08-14T11:06:28.441Z,101585.03
2023-08-14T11:09:06.388Z,101579.03
2023-08-14T11:11:33.719Z,101569.78
2023-08-14T11:14:01.167Z,101570.25
2023-08-14T11:16:29.224Z,101572.25
2023-08-14T11:18:59.372Z,101563.09
2023-08-14T11:21:31.995Z,101568.84
2023-08-14T11:24:00.177Z,101559.25
2023-08-14T11:26:31.714Z,101549.78
2023-08-14T11:28:59.079Z,101546.44
2023-08-14T11:31:33.934Z,101537.09
2023-08-14T11:34:02.467Z,101538.34
2023-08-14T11:36:34.467Z,101545.09
2023-08-14T11:39:02.563Z,101534.44
2023-08-14T11:41:31.985Z,101541.00
2023-08-14T11:43:59.861Z,101544.34
2023-08-14T11:46:27.450Z,101534.75
2023-08-14T11:48:54.797Z,101534.84
2023-08-14T11:51:22.163Z,101537.91
2023-08-14T11:53:49.713Z,101534.66
2023-08-14T11:56:17.107Z,101533.19
2023-08-14T11:58:49.870Z,101528.34
2023-08-14T12:01:25.354Z,101534.59
2023-08-14T12:03:53.910Z,101541.50
2023-08-14T12:06:21.692Z,101540.53
2023-08-14T12:08:49.112Z,101533.94
2023-08-14T12:11:18.074Z,101534.06
2023-08-14T12:13:54.009Z,101531.75
2023-08-14T12:16:23.055Z,101532.66
2023-08-14T12:18:51.200Z,101527.25
2023-08-14T12:21:18.631Z,101524.91
2023-08-14T12:23:48.223Z,101530.22
2023-08-14T12:26:16.697Z,101525.78
2023-08-14T12:28:44.477Z,101534.28
2023-08-14T12:31:15.681Z,101529.75
2023-08-14T12:33:45.203Z,101539.75
2023-08-14T12:36:14.386Z,101528.94
2023-08-14T12:38:41.727Z,101522.91
2023-08-14T12:41:09.119Z,101528.47
2023-08-14T12:43:40.171Z,101520.34
2023-08-14T12:46:11.413Z,101519.03
2023-08-14T12:48:38.905Z,101512.06
2023-08-14T12:53:53.574Z,101513.66
2023-08-14T12:59:09.042Z,101512.69
2023-08-14T13:01:36.447Z,101512.94
2023-08-14T13:04:07.735Z,101502.69
2023-08-14T13:06:35.426Z,101501.22
2023-08-14T13:09:03.053Z,101500.66
2023-08-14T13:11:30.585Z,101507.00
2023-08-14T13:13:58.116Z,101500.38
2023-08-14T13:16:25.832Z,101494.09
2023-08-14T13:18:53.575Z,101489.63
2023-08-14T13:21:20.883Z,101491.38
2023-08-14T13:23:50.321Z,101498.88
2023-08-14T13:26:26.883Z,101501.97
2023-08-14T13:28:55.580Z,101493.16
2023-08-14T13:31:23.082Z,101494.19
2023-08-14T13:33:51.112Z,101492.91
2023-08-14T13:36:18.567Z,101502.78
2023-08-14T13:38:45.962Z,101501.38
2023-08-14T13:41:13.465Z,101498.41
2023-08-14T13:43:41.061Z,101498.41
2023-08-14T13:46:08.574Z,101489.91
2023-08-14T13:48:35.910Z,101499.16
2023-08-14T13:51:03.410Z,101486.63
2023-08-14T13:53:30.875Z,101494.50
2023-08-14T13:55:58.324Z,101493.84
2023-08-14T13:58:25.696Z,101493.00
2023-08-14T14:00:53.076Z,101493.84
2023-08-14T14:03:20.457Z,101487.75
2023-08-14T14:05:47.907Z,101493.84
2023-08-14T14:08:15.255Z,101487.69
2023-08-14T14:10:42.603Z,101475.56
2023-08-14T14:13:10.112Z,101481.63
2023-08-14T14:15:39.338Z,101474.63
2023-08-14T14:18:07.999Z,101485.31
2023-08-14T14:20:36.189Z,101475.31
2023-08-14T14:23:03.628Z,101484.75
2023-08-14T14:25:31.158Z,101478.31
2023-08-14T14:27:59.743Z,101483.94
2023-08-14T14:30:27.730Z,101479.81
2023-08-14T14:32:55.133Z,101487.72
2023-08-14T14:35:22.659Z,101489.78
2023-08-14T14:37:49.998Z,101481.44
2023-08-14T14:40:17.385Z,101469.88
2023-08-14T14:42:44.734Z,101479.06
2023-08-14T14:45:20.618Z,101470.66
2023-08-14T14:47:56.111Z,101465.78
2023-08-14T14:50:29.676Z,101467.16
2023-08-14T14:52:58.448Z,101461.06
2023-08-14T14:55:27.521Z,101465.06
2023-08-14T14:57:54.910Z,101452.91
2023-08-14T15:00:22.664Z,101451.41
2023-08-14T15:02:51.312Z,101445.03
2023-08-14T15:07:49.126Z,101432.53
2023-08-14T15:10:16.866Z,101432.00
2023-08-14T15:12:44.416Z,101426.06
2023-08-14T15:15:11.998Z,101429.69
2023-08-14T15:17:44.013Z,101425.91
2023-08-14T15:20:14.061Z,101422.63
2023-08-14T15:22:44.307Z,101424.75
2023-08-14T15:25:13.264Z,101415.78
2023-08-14T15:27:40.640Z,101411.25
2023-08-14T15:30:09.874Z,101417.28
2023-08-14T15:32:37.410Z,101402.09
2023-08-14T15:35:05.326Z,101401.19
2023-08-14T15:37:32.754Z,101390.59
2023-08-14T15:40:00.235Z,101391.91
2023-08-14T15:42:27.625Z,101385.66
2023-08-14T15:44:55.853Z,101384.66
2023-08-14T15:47:23.846Z,101377.53
2023-08-14T15:49:51.243Z,101377.53
2023-08-14T15:52:19.066Z,101367.09
2023-08-14T15:54:53.486Z,101365.66
2023-08-14T15:57:22.658Z,101371.25
2023-08-14T15:59:51.122Z,101367.72
2023-08-14T16:02:22.784Z,101371.28
2023-08-14T16:04:51.536Z,101372.78
2023-08-14T16:07:19.734Z,101372.56
2023-08-14T16:09:51.227Z,101369.41
2023-08-14T16:12:19.359Z,101376.13
2023-08-14T16:14:47.499Z,101370.03
2023-08-14T16:17:15.178Z,101370.28
2023-08-14T16:19:42.515Z,101371.13
2023-08-14T16:22:09.968Z,101369.44
2023-08-14T16:24:39.790Z,101368.59
2023-08-14T16:27:08.254Z,101369.41
2023-08-14T16:29:35.567Z,101378.22
2023-08-14T16:32:02.938Z,101386.78
2023-08-14T16:34:30.400Z,101380.53
2023-08-14T16:36:57.753Z,101385.56
2023-08-14T16:39:25.113Z,101381.41
2023-08-14T16:41:52.468Z,101382.22
2023-08-14T16:44:21.531Z,101384.50
2023-08-14T16:46:48.899Z,101389.06
2023-08-14T16:49:16.297Z,101385.06
2023-08-14T16:51:43.598Z,101387.13
2023-08-14T16:54:10.977Z,101385.66
2023-08-14T16:56:39.864Z,101387.59
2023-08-14T16:59:07.367Z,101384.00
2023-08-14T17:01:35.616Z,101384.63
2023-08-14T17:04:04.395Z,101376.03
2023-08-14T17:06:32.009Z,101383.31
2023-08-14T17:08:59.416Z,101389.44
2023-08-14T17:11:26.831Z,101384.22
2023-08-14T17:13:54.246Z,101382.78
2023-08-14T17:16:21.558Z,101373.50
2023-08-14T17:18:48.975Z,101374.41
2023-08-14T17:21:16.376Z,101384.59
2023-08-14T17:23:43.794Z,101385.28
2023-08-14T17:26:11.058Z,101387.66
2023-08-14T17:28:38.476Z,101388.78
2023-08-14T17:31:05.770Z,101386.63
2023-08-14T17:33:33.260Z,101390.25
2023-08-14T17:36:00.533Z,101382.91
2023-08-14T17:38:27.926Z,101385.09
2023-08-14T17:40:55.617Z,101385.41
2023-08-14T17:43:23.126Z,101393.09
2023-08-14T17:45:51.023Z,101396.09
2023-08-14T17:48:18.498Z,101393.63
2023-08-14T17:50:53.218Z,101394.28
2023-08-14T17:53:21.388Z,101388.34
2023-08-14T17:55:48.879Z,101384.78
2023-08-14T17:58:16.353Z,101377.41
2023-08-14T18:00:49.008Z,101373.13
2023-08-14T18:03:16.651Z,101374.59
2023-08-14T18:05:54.354Z,101389.75
2023-08-14T18:08:22.166Z,101390.44
2023-08-14T18:10:50.338Z,101385.75
2023-08-14T18:13:17.730Z,101385.69
2023-08-14T18:15:45.703Z,101383.09
2023-08-14T18:18:13.125Z,101382.69
2023-08-14T18:20:40.466Z,101388.88
2023-08-14T18:23:08.305Z,101391.47
2023-08-14T18:25:35.699Z,101392.41
2023-08-14T18:28:03.158Z,101393.16
2023-08-14T18:30:30.808Z,101394.63
2023-08-14T18:32:58.245Z,101400.31
2023-08-14T18:35:25.836Z,101403.66
2023-08-14T18:37:54.331Z,101402.72
2023-08-14T18:40:21.715Z,101401.25
2023-08-14T18:42:49.055Z,101406.16
2023-08-14T18:45:17.115Z,101403.88
2023-08-14T18:47:45.006Z,101399.75
2023-08-14T18:50:13.806Z,101398.63
2023-08-14T18:52:41.439Z,101404.94
2023-08-14T18:55:09.720Z,101407.63
2023-08-14T18:57:37.378Z,101401.00
2023-08-14T19:00:10.966Z,101393.16
2023-08-14T19:02:38.400Z,101396.44
2023-08-14T19:05:06.579Z,101392.97
2023-08-14T19:07:33.853Z,101390.63
2023-08-14T19:10:01.193Z,101392.97
2023-08-14T19:12:30.300Z,101398.19
2023-08-14T19:14:57.646Z,101402.31
2023-08-14T19:17:24.996Z,101400.44
2023-08-14T19:19:52.344Z,101401.13
2023-08-14T19:22:19.924Z,101392.19
2023-08-14T19:24:47.345Z,101397.97
2023-08-14T19:27:14.816Z,101400.81
2023-08-14T19:29:43.119Z,101393.59
2023-08-14T19:32:10.550Z,101388.19
2023-08-14T19:34:37.937Z,101385.34
2023-08-14T19:37:05.550Z,101383.19
2023-08-14T19:39:33.033Z,101381.22
2023-08-14T19:42:00.398Z,101373.78
2023-08-14T19:44:27.728Z,101380.38
2023-08-14T19:46:55.121Z,101375.69
2023-08-14T19:49:22.504Z,101375.69
2023-08-14T19:51:49.947Z,101377.53
2023-08-14T19:54:17.291Z,101381.81
2023-08-14T19:56:44.624Z,101374.59
2023-08-14T19:59:11.952Z,101380.56
2023-08-14T20:01:39.390Z,101368.84
2023-08-14T20:04:07.138Z,101375.22
2023-08-14T20:06:34.684Z,101373.56
2023-08-14T20:09:02.607Z,101368.41
2023-08-14T20:11:30.267Z,101361.13
2023-08-14T20:13:57.605Z,101373.63
2023-08-14T20:16:25.020Z,101357.78
2023-08-14T20:18:53.906Z,101364.84
2023-08-14T20:21:21.393Z,101360.63
2023-08-14T20:23:48.806Z,101360.34
2023-08-14T20:26:16.148Z,101369.44
2023-08-14T20:28:44.570Z,101369.28
2023-08-14T20:31:19.175Z,101368.72
2023-08-14T20:33:46.978Z,101363.88
2023-08-14T20:36:28.103Z,101369.44
2023-08-14T20:38:55.465Z,101368.59
2023-08-14T20:41:22.875Z,101363.59
2023-08-14T20:43:50.206Z,101365.56
2023-08-14T20:46:17.685Z,101361.00
2023-08-14T20:48:45.092Z,101358.69
2023-08-14T20:51:13.135Z,101357.34
2023-08-14T20:53:41.212Z,101360.25
2023-08-14T20:56:08.681Z,101367.31
2023-08-14T20:58:36.122Z,101372.19
2023-08-14T21:01:03.532Z,101365.78
2023-08-14T21:03:31.065Z,101369.34
2023-08-14T21:05:58.653Z,101369.16
2023-08-14T21:08:26.076Z,101362.94
2023-08-14T21:10:53.630Z,101382.66
2023-08-14T21:13:21.387Z,101376.44
2023-08-14T21:15:48.781Z,101366.63
2023-08-14T21:18:16.283Z,101362.44
2023-08-14T21:20:44.566Z,101373.03
2023-08-14T21:23:13.366Z,101374.41
2023-08-14T21:25:47.723Z,101371.41
2023-08-14T21:28:16.724Z,101363.47
2023-08-14T21:30:44.379Z,101367.69
2023-08-14T21:33:11.759Z,101370.38
2023-08-14T21:35:39.146Z,101381.81
2023-08-14T21:38:06.528Z,101385.34
2023-08-14T21:40:39.031Z,101388.56
2023-08-14T21:43:06.334Z,101378.97
2023-08-14T21:45:37.481Z,101383.00
2023-08-14T21:48:05.085Z,101379.13
2023-08-14T21:50:36.479Z,101387.06
2023-08-14T21:53:04.728Z,101392.78
2023-08-14T21:55:32.135Z,101385.66
2023-08-14T21:57:59.438Z,101385.16
2023-08-14T22:00:26.769Z,101387.72
2023-08-14T22:02:54.130Z,101374.03
2023-08-14T22:05:21.535Z,101377.75
2023-08-14T22:07:48.854Z,101376.09
2023-08-14T22:10:16.305Z,101376.09
2023-08-14T22:12:45.981Z,101377.75
2023-08-14T22:15:13.629Z,101383.81
2023-08-14T22:17:40.994Z,101381.28
2023-08-14T22:20:11.343Z,101387.53
2023-08-14T22:22:39.238Z,101392.72
2023-08-14T22:25:08.420Z,101389.19
2023-08-14T22:27:40.450Z,101387.66
2023-08-14T22:30:08.407Z,101388.03
2023-08-14T22:32:35.740Z,101383.28
2023-08-14T22:35:03.191Z,101389.38
2023-08-14T22:37:30.605Z,101390.88
2023-08-14T22:39:58.047Z,101383.97
2023-08-14T22:42:26.195Z,101386.50
2023-08-14T22:44:53.557Z,101388.16
2023-08-14T22:47:21.048Z,101388.16
2023-08-14T22:49:48.535Z,101391.38
2023-08-14T22:52:15.905Z,101391.88
2023-08-14T22:54:43.409Z,101391.75
2023-08-14T22:57:10.869Z,101382.47
2023-08-14T22:59:38.264Z,101380.94
2023-08-14T23:02:05.681Z,101376.56
2023-08-14T23:04:33.041Z,101382.44
2023-08-14T23:07:00.389Z,101387.31
2023-08-14T23:09:27.793Z,101374.03
2023-08-14T23:11:55.155Z,101380.59
2023-08-14T23:16:49.749Z,101382.63
2023-08-14T23:19:17.103Z,101373.66
2023-08-14T23:21:44.504Z,101380.09
2023-08-14T23:24:11.856Z,101373.66
2023-08-14T23:26:39.234Z,101374.88
2023-08-14T23:29:06.610Z,101375.53
2023-08-14T23:31:34.012Z,101372.69
2023-08-14T23:34:01.366Z,101362.91
2023-08-14T23:36:29.188Z,101356.53
2023-08-14T23:38:56.476Z,101356.03
2023-08-14T23:41:23.761Z,101345.91
2023-08-14T23:43:51.055Z,101356.22
2023-08-14T23:46:18.432Z,101358.53
2023-08-14T23:48:45.734Z,101355.69
2023-08-14T23:51:13.152Z,101358.53
2023-08-14T23:53:40.507Z,101352.31
2023-08-14T23:56:07.861Z,101335.13
2023-08-14T23:58:35.199Z,101350.13
